sensor_id;sensor_type;location;lat;lon;timestamp;pressure;altitude;pressure_sealevel;temperature;humidity
44385;BME280;30101;32.778;34.994;2022-12-10T00:04:30;98148.66;;;14.83;66.70
44385;BME280;30101;32.778;34.994;2022-12-10T00:09:35;98138.34;;;14.80;66.23
44385;BME280;30101;32.778;34.994;2022-12-10T00:14:40;98140.66;;;14.77;66.54
44385;BME280;30101;32.778;34.994;2022-12-10T00:19:43;98132.47;;;14.72;66.66
44385;BME280;30101;32.778;34.994;2022-12-10T00:24:46;98133.00;;;14.62;66.82
44385;BME280;30101;32.778;34.994;2022-12-10T00:29:53;98129.13;;;14.58;66.23
44385;BME280;30101;32.778;34.994;2022-12-10T00:35:13;98129.44;;;14.50;66.26
44385;BME280;30101;32.778;34.994;2022-12-10T00:40:23;98137.16;;;14.46;66.25
44385;BME280;30101;32.778;34.994;2022-12-10T00:45:26;98128.25;;;14.46;66.60
44385;BME280;30101;32.778;34.994;2022-12-10T00:50:31;98130.94;;;14.46;66.47
44385;BME280;30101;32.778;34.994;2022-12-10T00:55:34;98118.91;;;14.48;66.22
44385;BME280;30101;32.778;34.994;2022-12-10T01:00:37;98121.38;;;14.50;66.39
44385;BME280;30101;32.778;34.994;2022-12-10T01:05:41;98116.38;;;14.53;66.00
44385;BME280;30101;32.778;34.994;2022-12-10T01:10:45;98118.03;;;14.54;66.34
44385;BME280;30101;32.778;34.994;2022-12-10T01:15:55;98109.97;;;14.54;65.76
44385;BME280;30101;32.778;34.994;2022-12-10T01:21:04;98111.00;;;14.53;65.93
44385;BME280;30101;32.778;34.994;2022-12-10T01:26:13;98116.97;;;14.55;66.08
44385;BME280;30101;32.778;34.994;2022-12-10T01:31:19;98111.59;;;14.55;65.84
44385;BME280;30101;32.778;34.994;2022-12-10T01:36:26;98116.97;;;14.55;65.70
44385;BME280;30101;32.778;34.994;2022-12-10T01:41:36;98119.88;;;14.54;66.02
44385;BME280;30101;32.778;34.994;2022-12-10T01:46:46;98123.00;;;14.51;65.62
44385;BME280;30101;32.778;34.994;2022-12-10T01:51:53;98121.75;;;14.53;65.81
44385;BME280;30101;32.778;34.994;2022-12-10T02:17:53;98113.38;;;14.43;65.47
44385;BME280;30101;32.778;34.994;2022-12-10T02:23:01;98117.53;;;14.39;65.53
44385;BME280;30101;32.778;34.994;2022-12-10T02:33:23;98120.53;;;14.31;65.68
44385;BME280;30101;32.778;34.994;2022-12-10T02:38:32;98104.97;;;14.21;65.54
44385;BME280;30101;32.778;34.994;2022-12-10T02:43:37;98115.56;;;14.16;65.93
44385;BME280;30101;32.778;34.994;2022-12-10T02:48:42;98115.19;;;14.13;65.75
44385;BME280;30101;32.778;34.994;2022-12-10T02:53:46;98116.22;;;14.12;65.90
44385;BME280;30101;32.778;34.994;2022-12-10T03:04:16;98123.69;;;14.10;65.96
44385;BME280;30101;32.778;34.994;2022-12-10T03:09:28;98129.06;;;14.10;65.78
44385;BME280;30101;32.778;34.994;2022-12-10T03:14:33;98116.69;;;14.09;65.86
44385;BME280;30101;32.778;34.994;2022-12-10T03:19:43;98121.25;;;14.08;65.96
44385;BME280;30101;32.778;34.994;2022-12-10T03:24:49;98132.19;;;14.07;65.82
44385;BME280;30101;32.778;34.994;2022-12-10T03:29:56;98135.91;;;14.06;65.95
44385;BME280;30101;32.778;34.994;2022-12-10T03:35:00;98141.75;;;14.02;65.92
44385;BME280;30101;32.778;34.994;2022-12-10T03:40:06;98145.66;;;14.00;66.07
44385;BME280;30101;32.778;34.994;2022-12-10T03:45:10;98141.00;;;13.95;65.85
44385;BME280;30101;32.778;34.994;2022-12-10T03:50:13;98140.84;;;13.90;66.14
44385;BME280;30101;32.778;34.994;2022-12-10T03:55:16;98139.19;;;13.89;66.04
44385;BME280;30101;32.778;34.994;2022-12-10T04:00:20;98143.28;;;13.92;65.94
44385;BME280;30101;32.778;34.994;2022-12-10T04:05:23;98141.88;;;13.89;65.98
44385;BME280;30101;32.778;34.994;2022-12-10T04:10:27;98149.38;;;13.81;66.18
44385;BME280;30101;32.778;34.994;2022-12-10T04:15:30;98151.59;;;13.65;66.19
44385;BME280;30101;32.778;34.994;2022-12-10T04:20:33;98150.44;;;13.55;66.29
44385;BME280;30101;32.778;34.994;2022-12-10T04:25:36;98149.28;;;13.44;66.52
44385;BME280;30101;32.778;34.994;2022-12-10T04:30:39;98164.59;;;13.37;66.73
44385;BME280;30101;32.778;34.994;2022-12-10T04:35:42;98161.75;;;13.32;66.65
44385;BME280;30101;32.778;34.994;2022-12-10T04:40:45;98157.25;;;13.26;66.81
44385;BME280;30101;32.778;34.994;2022-12-10T04:45:48;98156.88;;;13.22;66.82
44385;BME280;30101;32.778;34.994;2022-12-10T04:50:51;98164.50;;;13.18;66.84
44385;BME280;30101;32.778;34.994;2022-12-10T04:55:55;98160.75;;;13.19;66.88
44385;BME280;30101;32.778;34.994;2022-12-10T05:01:02;98150.66;;;13.28;66.84
44385;BME280;30101;32.778;34.994;2022-12-10T05:06:08;98154.22;;;13.47;66.41
44385;BME280;30101;32.778;34.994;2022-12-10T05:11:17;98155.47;;;13.69;66.32
44385;BME280;30101;32.778;34.994;2022-12-10T05:16:34;98157.97;;;13.89;65.92
44385;BME280;30101;32.778;34.994;2022-12-10T05:21:38;98157.47;;;13.99;65.88
44385;BME280;30101;32.778;34.994;2022-12-10T05:26:42;98157.38;;;14.06;65.67
44385;BME280;30101;32.778;34.994;2022-12-10T05:31:45;98172.63;;;14.12;65.71
44385;BME280;30101;32.778;34.994;2022-12-10T05:36:49;98167.41;;;14.17;65.70
44385;BME280;30101;32.778;34.994;2022-12-10T05:41:53;98172.25;;;14.26;65.56
44385;BME280;30101;32.778;34.994;2022-12-10T05:46:57;98177.09;;;14.36;65.36
44385;BME280;30101;32.778;34.994;2022-12-10T05:52:01;98179.91;;;14.48;65.10
44385;BME280;30101;32.778;34.994;2022-12-10T05:57:04;98179.75;;;14.61;64.74
44385;BME280;30101;32.778;34.994;2022-12-10T06:02:12;98186.28;;;14.83;64.64
44385;BME280;30101;32.778;34.994;2022-12-10T06:07:30;98187.94;;;14.84;64.91
44385;BME280;30101;32.778;34.994;2022-12-10T06:12:34;98190.00;;;14.82;64.29
44385;BME280;30101;32.778;34.994;2022-12-10T06:17:37;98189.41;;;14.80;64.98
44385;BME280;30101;32.778;34.994;2022-12-10T06:22:41;98193.16;;;14.79;64.52
44385;BME280;30101;32.778;34.994;2022-12-10T06:27:44;98201.56;;;14.83;64.66
44385;BME280;30101;32.778;34.994;2022-12-10T06:32:55;98206.38;;;14.81;64.36
44385;BME280;30101;32.778;34.994;2022-12-10T06:38:13;98200.56;;;14.84;64.57
44385;BME280;30101;32.778;34.994;2022-12-10T06:43:16;98197.69;;;14.97;64.54
44385;BME280;30101;32.778;34.994;2022-12-10T06:48:21;98194.59;;;15.12;64.39
44385;BME280;30101;32.778;34.994;2022-12-10T06:53:24;98197.09;;;15.25;64.28
44385;BME280;30101;32.778;34.994;2022-12-10T06:58:28;98195.13;;;15.32;63.85
44385;BME280;30101;32.778;34.994;2022-12-10T07:03:32;98197.13;;;15.37;64.08
44385;BME280;30101;32.778;34.994;2022-12-10T07:08:36;98198.75;;;15.38;64.02
44385;BME280;30101;32.778;34.994;2022-12-10T07:13:40;98196.34;;;15.48;63.68
44385;BME280;30101;32.778;34.994;2022-12-10T07:18:44;98189.66;;;15.51;63.18
44385;BME280;30101;32.778;34.994;2022-12-10T07:23:56;98200.84;;;15.66;63.33
44385;BME280;30101;32.778;34.994;2022-12-10T07:29:00;98205.22;;;15.79;63.03
44385;BME280;30101;32.778;34.994;2022-12-10T07:34:04;98200.66;;;15.91;62.86
44385;BME280;30101;32.778;34.994;2022-12-10T07:39:09;98202.41;;;15.97;62.26
44385;BME280;30101;32.778;34.994;2022-12-10T07:44:22;98200.75;;;16.08;62.46
44385;BME280;30101;32.778;34.994;2022-12-10T07:49:25;98196.91;;;16.15;62.36
44385;BME280;30101;32.778;34.994;2022-12-10T07:54:31;98190.34;;;16.23;62.15
44385;BME280;30101;32.778;34.994;2022-12-10T07:59:35;98184.00;;;16.29;61.99
44385;BME280;30101;32.778;34.994;2022-12-10T08:04:38;98182.34;;;16.40;61.85
44385;BME280;30101;32.778;34.994;2022-12-10T08:09:42;98178.56;;;16.53;61.45
44385;BME280;30101;32.778;34.994;2022-12-10T08:14:45;98172.94;;;16.66;61.37
44385;BME280;30101;32.778;34.994;2022-12-10T08:19:48;98174.31;;;16.80;60.97
44385;BME280;30101;32.778;34.994;2022-12-10T08:24:52;98173.22;;;16.93;60.99
44385;BME280;30101;32.778;34.994;2022-12-10T08:29:55;98170.69;;;17.03;60.80
44385;BME280;30101;32.778;34.994;2022-12-10T08:34:59;98169.81;;;17.14;60.62
44385;BME280;30101;32.778;34.994;2022-12-10T08:40:04;98157.97;;;17.15;60.19
44385;BME280;30101;32.778;34.994;2022-12-10T08:45:08;98162.41;;;17.21;60.08
44385;BME280;30101;32.778;34.994;2022-12-10T08:50:12;98143.94;;;17.30;60.00
44385;BME280;30101;32.778;34.994;2022-12-10T08:55:15;98145.66;;;17.36;59.79
44385;BME280;30101;32.778;34.994;2022-12-10T09:00:19;98136.34;;;17.44;59.74
44385;BME280;30101;32.778;34.994;2022-12-10T09:05:26;98128.09;;;17.50;59.65
44385;BME280;30101;32.778;34.994;2022-12-10T09:10:47;98125.22;;;17.57;59.26
44385;BME280;30101;32.778;34.994;2022-12-10T09:15:53;98115.78;;;17.60;59.19
44385;BME280;30101;32.778;34.994;2022-12-10T09:20:57;98101.00;;;17.62;59.04
44385;BME280;30101;32.778;34.994;2022-12-10T09:26:04;98089.22;;;17.68;59.00
44385;BME280;30101;32.778;34.994;2022-12-10T09:31:09;98086.63;;;17.73;58.61
44385;BME280;30101;32.778;34.994;2022-12-10T09:36:21;98072.94;;;17.80;58.41
44385;BME280;30101;32.778;34.994;2022-12-10T09:51:44;98059.81;;;17.89;58.14
44385;BME280;30101;32.778;34.994;2022-12-10T09:56:48;98050.53;;;18.01;58.04
44385;BME280;30101;32.778;34.994;2022-12-10T10:07:26;98042.44;;;18.23;57.60
44385;BME280;30101;32.778;34.994;2022-12-10T10:12:33;98040.34;;;18.30;57.38
44385;BME280;30101;32.778;34.994;2022-12-10T10:17:43;98025.00;;;18.36;57.33
44385;BME280;30101;32.778;34.994;2022-12-10T10:23:02;98031.03;;;18.43;57.13
44385;BME280;30101;32.778;34.994;2022-12-10T10:28:11;98020.78;;;18.45;56.93
44385;BME280;30101;32.778;34.994;2022-12-10T10:33:16;98012.72;;;18.50;57.00
44385;BME280;30101;32.778;34.994;2022-12-10T10:38:29;98011.97;;;18.55;56.89
44385;BME280;30101;32.778;34.994;2022-12-10T10:43:41;98004.72;;;18.60;56.89
44385;BME280;30101;32.778;34.994;2022-12-10T10:48:45;97995.28;;;18.63;56.87
44385;BME280;30101;32.778;34.994;2022-12-10T10:53:53;98000.75;;;18.68;56.63
44385;BME280;30101;32.778;34.994;2022-12-10T11:04:24;97995.97;;;18.75;56.44
44385;BME280;30101;32.778;34.994;2022-12-10T11:09:33;97986.75;;;18.76;56.34
44385;BME280;30101;32.778;34.994;2022-12-10T11:14:45;97988.97;;;18.79;56.50
44385;BME280;30101;32.778;34.994;2022-12-10T11:20:26;97994.41;;;18.84;56.21
44385;BME280;30101;32.778;34.994;2022-12-10T11:26:05;97989.56;;;18.86;55.87
44385;BME280;30101;32.778;34.994;2022-12-10T11:42:27;97997.47;;;18.93;55.42
44385;BME280;30101;32.778;34.994;2022-12-10T11:47:38;97996.91;;;18.91;54.99
44385;BME280;30101;32.778;34.994;2022-12-10T11:53:16;98001.00;;;18.94;54.77
44385;BME280;30101;32.778;34.994;2022-12-10T11:58:44;98001.00;;;18.94;54.73
44385;BME280;30101;32.778;34.994;2022-12-10T12:15:34;98001.84;;;18.99;54.62
44385;BME280;30101;32.778;34.994;2022-12-10T12:20:44;97999.38;;;18.98;54.63
44385;BME280;30101;32.778;34.994;2022-12-10T12:25:54;98001.28;;;18.97;54.48
44385;BME280;30101;32.778;34.994;2022-12-10T12:31:08;98003.97;;;18.97;54.75
44385;BME280;30101;32.778;34.994;2022-12-10T12:36:22;97995.59;;;18.94;54.73
44385;BME280;30101;32.778;34.994;2022-12-10T12:46:48;97997.16;;;18.90;54.70
44385;BME280;30101;32.778;34.994;2022-12-10T12:58:10;97994.97;;;18.86;54.80
44385;BME280;30101;32.778;34.994;2022-12-10T13:03:29;97989.25;;;18.83;55.02
44385;BME280;30101;32.778;34.994;2022-12-10T13:08:42;97984.59;;;18.78;55.06
44385;BME280;30101;32.778;34.994;2022-12-10T13:14:14;97981.63;;;18.75;55.29
44385;BME280;30101;32.778;34.994;2022-12-10T13:45:36;97993.41;;;18.15;57.63
44385;BME280;30101;32.778;34.994;2022-12-10T13:51:04;97987.50;;;17.96;58.22
44385;BME280;30101;32.778;34.994;2022-12-10T13:56:29;97980.53;;;17.78;58.49
44385;BME280;30101;32.778;34.994;2022-12-10T14:06:52;97988.69;;;17.44;59.49
44385;BME280;30101;32.778;34.994;2022-12-10T14:12:06;97994.63;;;17.24;60.24
44385;BME280;30101;32.778;34.994;2022-12-10T14:17:31;97993.25;;;17.05;60.57
44385;BME280;30101;32.778;34.994;2022-12-10T14:22:44;97994.63;;;16.91;60.66
44385;BME280;30101;32.778;34.994;2022-12-10T14:28:12;98005.72;;;16.78;61.57
44385;BME280;30101;32.778;34.994;2022-12-10T14:33:20;98003.06;;;16.66;62.10
44385;BME280;30101;32.778;34.994;2022-12-10T14:38:32;98003.69;;;16.56;62.32
44385;BME280;30101;32.778;34.994;2022-12-10T14:43:38;98004.09;;;16.48;62.81
44385;BME280;30101;32.778;34.994;2022-12-10T14:48:42;98022.06;;;16.42;62.94
44385;BME280;30101;32.778;34.994;2022-12-10T14:53:53;98013.63;;;16.39;63.61
44385;BME280;30101;32.778;34.994;2022-12-10T14:59:20;98027.59;;;16.36;63.87
44385;BME280;30101;32.778;34.994;2022-12-10T15:04:39;98023.16;;;16.30;64.05
44385;BME280;30101;32.778;34.994;2022-12-10T15:09:46;98018.22;;;16.27;64.43
44385;BME280;30101;32.778;34.994;2022-12-10T15:14:50;98015.53;;;16.27;64.66
44385;BME280;30101;32.778;34.994;2022-12-10T15:19:55;98014.47;;;16.28;64.87
44385;BME280;30101;32.778;34.994;2022-12-10T15:24:58;98011.47;;;16.24;65.59
44385;BME280;30101;32.778;34.994;2022-12-10T15:30:32;98006.06;;;16.24;65.65
44385;BME280;30101;32.778;34.994;2022-12-10T15:35:41;98015.44;;;16.22;65.80
44385;BME280;30101;32.778;34.994;2022-12-10T15:46:25;98021.81;;;16.15;66.58
44385;BME280;30101;32.778;34.994;2022-12-10T15:51:29;98022.84;;;16.14;66.66
44385;BME280;30101;32.778;34.994;2022-12-10T15:56:33;98035.97;;;16.11;66.99
44385;BME280;30101;32.778;34.994;2022-12-10T16:01:37;98034.81;;;16.07;67.37
44385;BME280;30101;32.778;34.994;2022-12-10T16:06:43;98029.56;;;16.00;67.43
44385;BME280;30101;32.778;34.994;2022-12-10T16:12:13;98034.94;;;16.00;67.71
44385;BME280;30101;32.778;34.994;2022-12-10T16:17:19;98038.13;;;15.97;68.26
44385;BME280;30101;32.778;34.994;2022-12-10T16:22:23;98038.59;;;15.94;68.49
44385;BME280;30101;32.778;34.994;2022-12-10T16:27:27;98047.16;;;15.91;68.60
44385;BME280;30101;32.778;34.994;2022-12-10T16:32:30;98050.66;;;15.91;68.83
44385;BME280;30101;32.778;34.994;2022-12-10T16:37:38;98053.13;;;15.93;68.62
44385;BME280;30101;32.778;34.994;2022-12-10T16:43:04;98046.91;;;15.93;68.82
44385;BME280;30101;32.778;34.994;2022-12-10T16:48:12;98055.44;;;15.89;68.85
44385;BME280;30101;32.778;34.994;2022-12-10T16:53:33;98058.06;;;15.84;69.35
44385;BME280;30101;32.778;34.994;2022-12-10T16:58:37;98060.16;;;15.82;69.72
44385;BME280;30101;32.778;34.994;2022-12-10T17:03:40;98060.16;;;15.82;69.63
44385;BME280;30101;32.778;34.994;2022-12-10T17:08:44;98063.09;;;15.81;69.54
44385;BME280;30101;32.778;34.994;2022-12-10T17:13:48;98063.09;;;15.81;69.88
44385;BME280;30101;32.778;34.994;2022-12-10T17:18:57;98061.91;;;15.77;69.80
44385;BME280;30101;32.778;34.994;2022-12-10T17:24:00;98062.97;;;15.76;70.36
44385;BME280;30101;32.778;34.994;2022-12-10T17:34:16;98050.69;;;15.68;70.35
44385;BME280;30101;32.778;34.994;2022-12-10T17:39:25;98048.47;;;15.65;69.97
44385;BME280;30101;32.778;34.994;2022-12-10T17:44:50;98049.41;;;15.59;70.41
44385;BME280;30101;32.778;34.994;2022-12-10T17:49:54;98043.88;;;15.54;69.93
44385;BME280;30101;32.778;34.994;2022-12-10T17:54:57;98044.72;;;15.54;69.95
44385;BME280;30101;32.778;34.994;2022-12-10T18:00:01;98042.47;;;15.51;69.89
44385;BME280;30101;32.778;34.994;2022-12-10T18:05:14;98048.91;;;15.50;69.83
44385;BME280;30101;32.778;34.994;2022-12-10T18:10:27;98044.59;;;15.49;69.71
44385;BME280;30101;32.778;34.994;2022-12-10T18:15:50;98036.16;;;15.46;69.38
44385;BME280;30101;32.778;34.994;2022-12-10T18:20:54;98039.44;;;15.48;68.55
44385;BME280;30101;32.778;34.994;2022-12-10T18:25:57;98042.94;;;15.48;68.28
44385;BME280;30101;32.778;34.994;2022-12-10T18:31:01;98045.63;;;15.48;67.74
44385;BME280;30101;32.778;34.994;2022-12-10T18:36:05;98061.91;;;15.53;67.38
44385;BME280;30101;32.778;34.994;2022-12-10T18:41:11;98052.78;;;15.54;67.03
44385;BME280;30101;32.778;34.994;2022-12-10T18:46:26;98055.22;;;15.56;66.90
44385;BME280;30101;32.778;34.994;2022-12-10T18:51:29;98053.59;;;15.55;66.30
44385;BME280;30101;32.778;34.994;2022-12-10T18:56:33;98052.16;;;15.52;66.33
44385;BME280;30101;32.778;34.994;2022-12-10T19:01:37;98051.03;;;15.48;66.47
44385;BME280;30101;32.778;34.994;2022-12-10T19:06:47;98046.81;;;15.41;67.18
44385;BME280;30101;32.778;34.994;2022-12-10T19:12:10;98055.59;;;15.36;66.97
44385;BME280;30101;32.778;34.994;2022-12-10T19:17:13;98054.88;;;15.29;67.46
44385;BME280;30101;32.778;34.994;2022-12-10T19:22:17;98051.00;;;15.25;67.98
44385;BME280;30101;32.778;34.994;2022-12-10T19:27:20;98050.88;;;15.20;67.65
44385;BME280;30101;32.778;34.994;2022-12-10T19:32:24;98049.00;;;15.20;67.01
44385;BME280;30101;32.778;34.994;2022-12-10T19:37:27;98047.38;;;15.19;66.82
44385;BME280;30101;32.778;34.994;2022-12-10T19:42:32;98050.44;;;15.23;66.62
44385;BME280;30101;32.778;34.994;2022-12-10T19:47:35;98057.81;;;15.27;65.84
44385;BME280;30101;32.778;34.994;2022-12-10T19:52:39;98056.75;;;15.28;65.69
44385;BME280;30101;32.778;34.994;2022-12-10T19:57:45;98051.56;;;15.27;65.20
44385;BME280;30101;32.778;34.994;2022-12-10T20:02:48;98048.56;;;15.23;65.01
44385;BME280;30101;32.778;34.994;2022-12-10T20:07:53;98042.94;;;15.25;64.88
44385;BME280;30101;32.778;34.994;2022-12-10T20:12:57;98055.31;;;15.26;64.20
44385;BME280;30101;32.778;34.994;2022-12-10T20:18:01;98052.63;;;15.26;64.02
44385;BME280;30101;32.778;34.994;2022-12-10T20:23:04;98047.88;;;15.28;63.69
44385;BME280;30101;32.778;34.994;2022-12-10T20:28:08;98056.75;;;15.28;63.60
44385;BME280;30101;32.778;34.994;2022-12-10T20:33:12;98049.50;;;15.29;63.23
44385;BME280;30101;32.778;34.994;2022-12-10T20:38:35;98048.44;;;15.30;62.78
44385;BME280;30101;32.778;34.994;2022-12-10T20:43:39;98043.63;;;15.32;62.64
44385;BME280;30101;32.778;34.994;2022-12-10T20:48:43;98042.81;;;15.31;62.73
44385;BME280;30101;32.778;34.994;2022-12-10T20:53:47;98038.97;;;15.27;62.11
44385;BME280;30101;32.778;34.994;2022-12-10T20:58:51;98033.81;;;15.26;61.91
44385;BME280;30101;32.778;34.994;2022-12-10T21:03:56;98035.69;;;15.25;61.66
44385;BME280;30101;32.778;34.994;2022-12-10T21:09:05;98042.25;;;15.29;61.38
44385;BME280;30101;32.778;34.994;2022-12-10T21:14:30;98042.00;;;15.31;61.21
44385;BME280;30101;32.778;34.994;2022-12-10T21:19:53;98040.94;;;15.32;61.26
44385;BME280;30101;32.778;34.994;2022-12-10T21:24:57;98037.56;;;15.36;61.04
44385;BME280;30101;32.778;34.994;2022-12-10T21:30:01;98034.06;;;15.36;61.23
44385;BME280;30101;32.778;34.994;2022-12-10T21:35:06;98024.34;;;15.35;60.80
44385;BME280;30101;32.778;34.994;2022-12-10T21:40:10;98025.50;;;15.39;60.82
44385;BME280;30101;32.778;34.994;2022-12-10T21:45:15;98019.31;;;15.38;60.52
44385;BME280;30101;32.778;34.994;2022-12-10T21:50:19;98009.59;;;15.37;60.42
44385;BME280;30101;32.778;34.994;2022-12-10T21:55:23;98015.22;;;15.36;60.71
44385;BME280;30101;32.778;34.994;2022-12-10T22:00:32;98003.75;;;15.29;60.20
44385;BME280;30101;32.778;34.994;2022-12-10T22:05:40;98006.34;;;15.24;60.30
44385;BME280;30101;32.778;34.994;2022-12-10T22:10:45;98002.69;;;15.18;60.13
44385;BME280;30101;32.778;34.994;2022-12-10T22:15:52;97995.31;;;15.14;60.24
44385;BME280;30101;32.778;34.994;2022-12-10T22:20:58;97979.66;;;15.10;60.53
44385;BME280;30101;32.778;34.994;2022-12-10T22:26:08;97982.22;;;15.05;60.33
44385;BME280;30101;32.778;34.994;2022-12-10T22:31:12;97970.53;;;15.00;60.19
44385;BME280;30101;32.778;34.994;2022-12-10T22:36:15;97966.47;;;14.97;59.99
44385;BME280;30101;32.778;34.994;2022-12-10T22:41:19;97964.81;;;14.96;60.10
44385;BME280;30101;32.778;34.994;2022-12-10T22:46:22;97969.16;;;14.97;59.62
44385;BME280;30101;32.778;34.994;2022-12-10T22:51:35;97965.63;;;14.97;59.34
44385;BME280;30101;32.778;34.994;2022-12-10T22:56:39;97965.97;;;14.89;59.81
44385;BME280;30101;32.778;34.994;2022-12-10T23:01:42;97977.44;;;14.84;59.40
44385;BME280;30101;32.778;34.994;2022-12-10T23:06:46;97967.69;;;14.83;59.61
44385;BME280;30101;32.778;34.994;2022-12-10T23:11:49;97966.78;;;14.77;59.66
44385;BME280;30101;32.778;34.994;2022-12-10T23:16:52;97966.19;;;14.75;59.37
44385;BME280;30101;32.778;34.994;2022-12-10T23:21:56;97958.94;;;14.76;59.19
44385;BME280;30101;32.778;34.994;2022-12-10T23:27:00;97956.16;;;14.71;59.47
44385;BME280;30101;32.778;34.994;2022-12-10T23:32:03;97968.84;;;14.64;59.30
44385;BME280;30101;32.778;34.994;2022-12-10T23:37:07;97960.53;;;14.53;59.18
44385;BME280;30101;32.778;34.994;2022-12-10T23:42:10;97963.09;;;14.48;59.30
44385;BME280;30101;32.778;34.994;2022-12-10T23:47:13;97970.09;;;14.49;59.21
44385;BME280;30101;32.778;34.994;2022-12-10T23:52:17;97963.75;;;14.44;59.31
44385;BME280;30101;32.778;34.994;2022-12-10T23:57:21;97954.72;;;14.38;59.07
